sensor_id;sensor_type;location;lat;lon;timestamp;P1;durP1;ratioP1;P2;durP2;ratioP2
22603;SDS011;11469;49.024;8.246;2023-09-19T00:02:12;6.03;;;1.52;;
22603;SDS011;11469;49.024;8.246;2023-09-19T00:04:37;4.97;;;1.48;;
22603;SDS011;11469;49.024;8.246;2023-09-19T00:07:05;4.70;;;1.50;;
22603;SDS011;11469;49.024;8.246;2023-09-19T00:09:30;3.88;;;1.20;;
22603;SDS011;11469;49.024;8.246;2023-09-19T00:12:02;3.63;;;1.35;;
22603;SDS011;11469;49.024;8.246;2023-09-19T00:14:29;7.15;;;1.23;;
22603;SDS011;11469;49.024;8.246;2023-09-19T00:16:54;4.72;;;1.13;;
22603;SDS011;11469;49.024;8.246;2023-09-19T00:19:20;5.60;;;1.15;;
22603;SDS011;11469;49.024;8.246;2023-09-19T00:21:45;3.90;;;1.35;;
22603;SDS011;11469;49.024;8.246;2023-09-19T00:24:12;2.25;;;1.30;;
22603;SDS011;11469;49.024;8.246;2023-09-19T00:26:41;5.72;;;1.52;;
22603;SDS011;11469;49.024;8.246;2023-09-19T00:29:07;6.28;;;1.13;;
22603;SDS011;11469;49.024;8.246;2023-09-19T00:31:33;3.95;;;1.02;;
22603;SDS011;11469;49.024;8.246;2023-09-19T00:33:59;4.07;;;1.30;;
22603;SDS011;11469;49.024;8.246;2023-09-19T00:36:29;3.35;;;0.93;;
22603;SDS011;11469;49.024;8.246;2023-09-19T00:38:55;3.83;;;1.20;;
22603;SDS011;11469;49.024;8.246;2023-09-19T00:41:20;8.50;;;1.20;;
22603;SDS011;11469;49.024;8.246;2023-09-19T00:43:46;3.60;;;1.35;;
22603;SDS011;11469;49.024;8.246;2023-09-19T00:46:12;3.40;;;1.20;;
22603;SDS011;11469;49.024;8.246;2023-09-19T00:48:41;3.80;;;1.20;;
22603;SDS011;11469;49.024;8.246;2023-09-19T00:51:11;5.55;;;1.00;;
22603;SDS011;11469;49.024;8.246;2023-09-19T00:53:39;3.63;;;1.27;;
22603;SDS011;11469;49.024;8.246;2023-09-19T00:56:11;5.28;;;1.15;;
22603;SDS011;11469;49.024;8.246;2023-09-19T00:58:36;4.43;;;1.33;;
22603;SDS011;11469;49.024;8.246;2023-09-19T01:01:02;4.70;;;1.10;;
22603;SDS011;11469;49.024;8.246;2023-09-19T01:03:31;4.97;;;1.15;;
22603;SDS011;11469;49.024;8.246;2023-09-19T01:06:01;3.45;;;1.20;;
22603;SDS011;11469;49.024;8.246;2023-09-19T01:08:27;5.57;;;1.10;;
22603;SDS011;11469;49.024;8.246;2023-09-19T01:11:03;2.95;;;1.33;;
22603;SDS011;11469;49.024;8.246;2023-09-19T01:17:09;5.70;;;1.42;;
22603;SDS011;11469;49.024;8.246;2023-09-19T01:22:04;2.58;;;1.17;;
22603;SDS011;11469;49.024;8.246;2023-09-19T01:28:13;6.50;;;1.35;;
22603;SDS011;11469;49.024;8.246;2023-09-19T01:30:35;5.22;;;1.20;;
22603;SDS011;11469;49.024;8.246;2023-09-19T01:33:05;4.13;;;1.20;;
22603;SDS011;11469;49.024;8.246;2023-09-19T01:35:31;4.13;;;0.93;;
22603;SDS011;11469;49.024;8.246;2023-09-19T01:37:57;4.68;;;1.30;;
22603;SDS011;11469;49.024;8.246;2023-09-19T01:40:24;3.28;;;1.45;;
22603;SDS011;11469;49.024;8.246;2023-09-19T01:42:56;3.17;;;1.15;;
22603;SDS011;11469;49.024;8.246;2023-09-19T01:48:07;5.35;;;1.30;;
22603;SDS011;11469;49.024;8.246;2023-09-19T01:50:55;3.83;;;1.45;;
22603;SDS011;11469;49.024;8.246;2023-09-19T01:53:26;4.43;;;1.30;;
22603;SDS011;11469;49.024;8.246;2023-09-19T01:55:53;7.07;;;1.30;;
22603;SDS011;11469;49.024;8.246;2023-09-19T01:58:21;5.80;;;1.48;;
22603;SDS011;11469;49.024;8.246;2023-09-19T02:00:52;5.75;;;1.00;;
22603;SDS011;11469;49.024;8.246;2023-09-19T02:03:21;6.75;;;1.50;;
22603;SDS011;11469;49.024;8.246;2023-09-19T02:05:48;6.28;;;1.05;;
22603;SDS011;11469;49.024;8.246;2023-09-19T02:08:16;4.80;;;1.42;;
22603;SDS011;11469;49.024;8.246;2023-09-19T02:10:44;4.82;;;1.50;;
22603;SDS011;11469;49.024;8.246;2023-09-19T02:13:14;6.68;;;1.25;;
22603;SDS011;11469;49.024;8.246;2023-09-19T02:15:42;4.15;;;1.45;;
22603;SDS011;11469;49.024;8.246;2023-09-19T02:18:09;4.63;;;1.30;;
22603;SDS011;11469;49.024;8.246;2023-09-19T02:20:34;6.53;;;1.48;;
22603;SDS011;11469;49.024;8.246;2023-09-19T02:23:00;7.03;;;1.33;;
22603;SDS011;11469;49.024;8.246;2023-09-19T02:25:25;5.93;;;1.33;;
22603;SDS011;11469;49.024;8.246;2023-09-19T02:27:52;2.88;;;1.10;;
22603;SDS011;11469;49.024;8.246;2023-09-19T02:30:19;4.63;;;1.20;;
22603;SDS011;11469;49.024;8.246;2023-09-19T02:32:47;7.07;;;1.52;;
22603;SDS011;11469;49.024;8.246;2023-09-19T02:35:14;1.70;;;1.13;;
22603;SDS011;11469;49.024;8.246;2023-09-19T02:37:44;2.80;;;1.20;;
22603;SDS011;11469;49.024;8.246;2023-09-19T02:40:10;4.38;;;1.30;;
22603;SDS011;11469;49.024;8.246;2023-09-19T02:42:47;5.13;;;1.17;;
22603;SDS011;11469;49.024;8.246;2023-09-19T02:45:13;4.97;;;1.30;;
22603;SDS011;11469;49.024;8.246;2023-09-19T02:47:42;7.20;;;1.38;;
22603;SDS011;11469;49.024;8.246;2023-09-19T02:50:08;3.20;;;1.33;;
22603;SDS011;11469;49.024;8.246;2023-09-19T02:52:36;3.50;;;1.27;;
22603;SDS011;11469;49.024;8.246;2023-09-19T02:55:02;3.35;;;1.58;;
22603;SDS011;11469;49.024;8.246;2023-09-19T02:57:30;4.18;;;1.35;;
22603;SDS011;11469;49.024;8.246;2023-09-19T02:59:59;7.43;;;1.98;;
22603;SDS011;11469;49.024;8.246;2023-09-19T03:02:27;9.00;;;1.75;;
22603;SDS011;11469;49.024;8.246;2023-09-19T03:04:53;5.30;;;1.67;;
22603;SDS011;11469;49.024;8.246;2023-09-19T03:07:20;6.55;;;1.60;;
22603;SDS011;11469;49.024;8.246;2023-09-19T03:09:46;6.60;;;1.88;;
22603;SDS011;11469;49.024;8.246;2023-09-19T03:12:11;14.20;;;2.10;;
22603;SDS011;11469;49.024;8.246;2023-09-19T03:14:36;7.15;;;1.52;;
22603;SDS011;11469;49.024;8.246;2023-09-19T03:17:02;9.98;;;1.63;;
22603;SDS011;11469;49.024;8.246;2023-09-19T03:19:30;6.05;;;1.85;;
22603;SDS011;11469;49.024;8.246;2023-09-19T03:21:58;11.57;;;2.08;;
22603;SDS011;11469;49.024;8.246;2023-09-19T03:24:24;4.72;;;2.08;;
22603;SDS011;11469;49.024;8.246;2023-09-19T03:26:49;16.02;;;4.25;;
22603;SDS011;11469;49.024;8.246;2023-09-19T03:29:15;10.40;;;4.10;;
22603;SDS011;11469;49.024;8.246;2023-09-19T03:31:42;13.02;;;4.72;;
22603;SDS011;11469;49.024;8.246;2023-09-19T03:34:07;11.27;;;5.10;;
22603;SDS011;11469;49.024;8.246;2023-09-19T03:36:33;13.32;;;4.97;;
22603;SDS011;11469;49.024;8.246;2023-09-19T03:38:59;15.32;;;5.75;;
22603;SDS011;11469;49.024;8.246;2023-09-19T03:41:24;18.17;;;7.28;;
22603;SDS011;11469;49.024;8.246;2023-09-19T03:43:50;22.10;;;8.75;;
22603;SDS011;11469;49.024;8.246;2023-09-19T03:46:15;15.95;;;9.27;;
22603;SDS011;11469;49.024;8.246;2023-09-19T03:48:41;20.00;;;11.48;;
22603;SDS011;11469;49.024;8.246;2023-09-19T03:51:06;28.27;;;14.80;;
22603;SDS011;11469;49.024;8.246;2023-09-19T03:53:31;26.17;;;14.57;;
22603;SDS011;11469;49.024;8.246;2023-09-19T03:55:57;27.63;;;14.95;;
22603;SDS011;11469;49.024;8.246;2023-09-19T03:58:22;26.67;;;14.50;;
22603;SDS011;11469;49.024;8.246;2023-09-19T04:00:48;30.67;;;15.65;;
22603;SDS011;11469;49.024;8.246;2023-09-19T04:03:14;27.15;;;14.07;;
22603;SDS011;11469;49.024;8.246;2023-09-19T04:05:45;24.45;;;13.07;;
22603;SDS011;11469;49.024;8.246;2023-09-19T04:08:12;30.48;;;13.43;;
22603;SDS011;11469;49.024;8.246;2023-09-19T04:10:37;18.17;;;11.57;;
22603;SDS011;11469;49.024;8.246;2023-09-19T04:13:02;27.98;;;12.13;;
22603;SDS011;11469;49.024;8.246;2023-09-19T04:15:29;24.80;;;11.82;;
22603;SDS011;11469;49.024;8.246;2023-09-19T04:17:54;25.00;;;12.05;;
22603;SDS011;11469;49.024;8.246;2023-09-19T04:20:20;19.45;;;9.93;;
22603;SDS011;11469;49.024;8.246;2023-09-19T04:22:47;18.50;;;8.30;;
22603;SDS011;11469;49.024;8.246;2023-09-19T04:25:12;21.27;;;8.85;;
22603;SDS011;11469;49.024;8.246;2023-09-19T04:27:38;20.95;;;8.48;;
22603;SDS011;11469;49.024;8.246;2023-09-19T04:30:03;14.20;;;6.78;;
22603;SDS011;11469;49.024;8.246;2023-09-19T04:32:35;12.80;;;6.20;;
22603;SDS011;11469;49.024;8.246;2023-09-19T04:35:01;10.90;;;6.07;;
22603;SDS011;11469;49.024;8.246;2023-09-19T04:37:31;14.38;;;5.32;;
22603;SDS011;11469;49.024;8.246;2023-09-19T04:39:56;12.63;;;5.32;;
22603;SDS011;11469;49.024;8.246;2023-09-19T04:42:22;14.95;;;5.45;;
22603;SDS011;11469;49.024;8.246;2023-09-19T04:44:49;11.30;;;4.50;;
22603;SDS011;11469;49.024;8.246;2023-09-19T04:47:15;11.38;;;4.32;;
22603;SDS011;11469;49.024;8.246;2023-09-19T04:49:41;6.25;;;3.38;;
22603;SDS011;11469;49.024;8.246;2023-09-19T04:52:06;9.07;;;3.42;;
22603;SDS011;11469;49.024;8.246;2023-09-19T04:54:32;7.85;;;3.70;;
22603;SDS011;11469;49.024;8.246;2023-09-19T04:56:58;10.20;;;2.80;;
22603;SDS011;11469;49.024;8.246;2023-09-19T04:59:25;14.52;;;2.85;;
22603;SDS011;11469;49.024;8.246;2023-09-19T05:01:50;8.48;;;2.30;;
22603;SDS011;11469;49.024;8.246;2023-09-19T05:04:16;7.63;;;2.05;;
22603;SDS011;11469;49.024;8.246;2023-09-19T05:06:41;5.85;;;1.70;;
22603;SDS011;11469;49.024;8.246;2023-09-19T05:09:07;10.45;;;2.15;;
22603;SDS011;11469;49.024;8.246;2023-09-19T05:11:33;4.85;;;2.00;;
22603;SDS011;11469;49.024;8.246;2023-09-19T05:13:59;10.65;;;1.92;;
22603;SDS011;11469;49.024;8.246;2023-09-19T05:16:29;5.38;;;1.83;;
22603;SDS011;11469;49.024;8.246;2023-09-19T05:18:56;6.32;;;2.05;;
22603;SDS011;11469;49.024;8.246;2023-09-19T05:21:23;4.90;;;2.03;;
22603;SDS011;11469;49.024;8.246;2023-09-19T05:23:51;5.05;;;1.95;;
22603;SDS011;11469;49.024;8.246;2023-09-19T05:26:17;9.95;;;2.28;;
22603;SDS011;11469;49.024;8.246;2023-09-19T05:28:43;5.82;;;1.70;;
22603;SDS011;11469;49.024;8.246;2023-09-19T05:31:08;4.68;;;2.13;;
22603;SDS011;11469;49.024;8.246;2023-09-19T05:33:33;8.93;;;2.75;;
22603;SDS011;11469;49.024;8.246;2023-09-19T05:35:59;6.82;;;2.40;;
22603;SDS011;11469;49.024;8.246;2023-09-19T05:38:24;8.95;;;2.17;;
22603;SDS011;11469;49.024;8.246;2023-09-19T05:40:52;9.15;;;2.45;;
22603;SDS011;11469;49.024;8.246;2023-09-19T05:43:17;7.93;;;2.33;;
22603;SDS011;11469;49.024;8.246;2023-09-19T05:45:44;8.25;;;2.53;;
22603;SDS011;11469;49.024;8.246;2023-09-19T05:48:14;7.72;;;2.30;;
22603;SDS011;11469;49.024;8.246;2023-09-19T05:50:41;8.63;;;2.20;;
22603;SDS011;11469;49.024;8.246;2023-09-19T05:53:06;9.00;;;2.05;;
22603;SDS011;11469;49.024;8.246;2023-09-19T05:55:32;10.27;;;2.22;;
22603;SDS011;11469;49.024;8.246;2023-09-19T05:57:58;9.15;;;2.38;;
22603;SDS011;11469;49.024;8.246;2023-09-19T06:00:24;11.18;;;2.30;;
22603;SDS011;11469;49.024;8.246;2023-09-19T06:02:56;9.45;;;2.60;;
22603;SDS011;11469;49.024;8.246;2023-09-19T06:05:22;10.13;;;2.33;;
22603;SDS011;11469;49.024;8.246;2023-09-19T06:07:48;7.13;;;2.08;;
22603;SDS011;11469;49.024;8.246;2023-09-19T06:10:14;7.40;;;2.05;;
22603;SDS011;11469;49.024;8.246;2023-09-19T06:12:40;5.38;;;2.03;;
22603;SDS011;11469;49.024;8.246;2023-09-19T06:15:09;5.07;;;1.80;;
22603;SDS011;11469;49.024;8.246;2023-09-19T06:17:40;6.82;;;1.77;;
22603;SDS011;11469;49.024;8.246;2023-09-19T06:20:07;12.48;;;1.75;;
22603;SDS011;11469;49.024;8.246;2023-09-19T06:22:40;9.43;;;2.17;;
22603;SDS011;11469;49.024;8.246;2023-09-19T06:25:07;8.57;;;1.88;;
22603;SDS011;11469;49.024;8.246;2023-09-19T06:27:36;9.63;;;2.47;;
22603;SDS011;11469;49.024;8.246;2023-09-19T06:30:02;8.10;;;1.90;;
22603;SDS011;11469;49.024;8.246;2023-09-19T06:32:28;9.88;;;1.83;;
22603;SDS011;11469;49.024;8.246;2023-09-19T06:34:53;8.85;;;2.35;;
22603;SDS011;11469;49.024;8.246;2023-09-19T06:37:20;8.73;;;2.00;;
22603;SDS011;11469;49.024;8.246;2023-09-19T06:39:46;9.32;;;1.77;;
22603;SDS011;11469;49.024;8.246;2023-09-19T06:42:14;7.70;;;2.00;;
22603;SDS011;11469;49.024;8.246;2023-09-19T06:44:42;10.00;;;1.95;;
22603;SDS011;11469;49.024;8.246;2023-09-19T06:47:07;4.85;;;2.00;;
22603;SDS011;11469;49.024;8.246;2023-09-19T06:49:33;10.57;;;2.40;;
22603;SDS011;11469;49.024;8.246;2023-09-19T06:51:58;10.10;;;2.03;;
22603;SDS011;11469;49.024;8.246;2023-09-19T06:54:24;9.50;;;2.22;;
22603;SDS011;11469;49.024;8.246;2023-09-19T06:56:49;7.60;;;2.30;;
22603;SDS011;11469;49.024;8.246;2023-09-19T06:59:14;10.00;;;1.95;;
22603;SDS011;11469;49.024;8.246;2023-09-19T07:01:41;6.70;;;1.83;;
22603;SDS011;11469;49.024;8.246;2023-09-19T07:04:09;8.68;;;1.42;;
22603;SDS011;11469;49.024;8.246;2023-09-19T07:06:34;6.25;;;1.77;;
22603;SDS011;11469;49.024;8.246;2023-09-19T07:09:00;9.10;;;2.55;;
22603;SDS011;11469;49.024;8.246;2023-09-19T07:11:26;11.15;;;2.40;;
22603;SDS011;11469;49.024;8.246;2023-09-19T07:13:51;10.20;;;2.00;;
22603;SDS011;11469;49.024;8.246;2023-09-19T07:16:16;5.72;;;1.67;;
22603;SDS011;11469;49.024;8.246;2023-09-19T07:18:52;6.15;;;2.10;;
22603;SDS011;11469;49.024;8.246;2023-09-19T07:21:18;4.63;;;2.10;;
22603;SDS011;11469;49.024;8.246;2023-09-19T07:23:43;9.50;;;1.40;;
22603;SDS011;11469;49.024;8.246;2023-09-19T07:26:09;10.10;;;1.70;;
22603;SDS011;11469;49.024;8.246;2023-09-19T07:28:34;8.07;;;2.80;;
22603;SDS011;11469;49.024;8.246;2023-09-19T07:31:02;7.82;;;1.70;;
22603;SDS011;11469;49.024;8.246;2023-09-19T07:33:34;7.38;;;1.73;;
22603;SDS011;11469;49.024;8.246;2023-09-19T07:35:59;5.80;;;1.38;;
22603;SDS011;11469;49.024;8.246;2023-09-19T07:38:25;6.28;;;1.45;;
22603;SDS011;11469;49.024;8.246;2023-09-19T07:40:52;5.47;;;1.42;;
22603;SDS011;11469;49.024;8.246;2023-09-19T07:43:17;6.00;;;1.60;;
22603;SDS011;11469;49.024;8.246;2023-09-19T07:45:43;7.22;;;1.67;;
22603;SDS011;11469;49.024;8.246;2023-09-19T07:48:08;5.05;;;1.40;;
22603;SDS011;11469;49.024;8.246;2023-09-19T07:50:39;7.25;;;1.65;;
22603;SDS011;11469;49.024;8.246;2023-09-19T07:53:05;8.50;;;1.20;;
22603;SDS011;11469;49.024;8.246;2023-09-19T07:55:31;7.07;;;1.42;;
22603;SDS011;11469;49.024;8.246;2023-09-19T07:57:58;12.45;;;1.55;;
22603;SDS011;11469;49.024;8.246;2023-09-19T08:00:24;4.10;;;1.30;;
22603;SDS011;11469;49.024;8.246;2023-09-19T08:02:49;4.75;;;1.45;;
22603;SDS011;11469;49.024;8.246;2023-09-19T08:05:17;4.13;;;1.10;;
22603;SDS011;11469;49.024;8.246;2023-09-19T08:07:43;7.85;;;1.40;;
22603;SDS011;11469;49.024;8.246;2023-09-19T08:10:14;7.70;;;1.35;;
22603;SDS011;11469;49.024;8.246;2023-09-19T08:12:41;7.53;;;1.50;;
22603;SDS011;11469;49.024;8.246;2023-09-19T08:15:11;5.93;;;1.55;;
22603;SDS011;11469;49.024;8.246;2023-09-19T08:20:11;4.65;;;1.50;;
22603;SDS011;11469;49.024;8.246;2023-09-19T08:25:17;6.07;;;1.42;;
22603;SDS011;11469;49.024;8.246;2023-09-19T08:27:43;6.32;;;1.30;;
22603;SDS011;11469;49.024;8.246;2023-09-19T08:30:13;4.30;;;1.10;;
22603;SDS011;11469;49.024;8.246;2023-09-19T08:32:43;4.90;;;1.65;;
22603;SDS011;11469;49.024;8.246;2023-09-19T08:35:09;2.63;;;1.10;;
22603;SDS011;11469;49.024;8.246;2023-09-19T08:37:35;7.03;;;1.45;;
22603;SDS011;11469;49.024;8.246;2023-09-19T08:40:01;5.47;;;1.60;;
22603;SDS011;11469;49.024;8.246;2023-09-19T08:42:27;3.92;;;1.27;;
22603;SDS011;11469;49.024;8.246;2023-09-19T08:44:52;9.45;;;1.20;;
22603;SDS011;11469;49.024;8.246;2023-09-19T08:47:23;4.78;;;1.30;;
22603;SDS011;11469;49.024;8.246;2023-09-19T08:50:11;4.53;;;1.63;;
22603;SDS011;11469;49.024;8.246;2023-09-19T08:52:53;6.68;;;1.40;;
22603;SDS011;11469;49.024;8.246;2023-09-19T08:55:22;8.75;;;1.70;;
22603;SDS011;11469;49.024;8.246;2023-09-19T08:57:51;8.70;;;1.30;;
22603;SDS011;11469;49.024;8.246;2023-09-19T09:00:20;8.95;;;1.40;;
22603;SDS011;11469;49.024;8.246;2023-09-19T09:02:48;3.55;;;1.30;;
22603;SDS011;11469;49.024;8.246;2023-09-19T09:05:14;8.27;;;1.80;;
22603;SDS011;11469;49.024;8.246;2023-09-19T09:07:47;7.85;;;1.02;;
22603;SDS011;11469;49.024;8.246;2023-09-19T09:10:15;5.97;;;1.20;;
22603;SDS011;11469;49.024;8.246;2023-09-19T09:12:41;5.40;;;1.73;;
22603;SDS011;11469;49.024;8.246;2023-09-19T09:15:09;5.03;;;1.30;;
22603;SDS011;11469;49.024;8.246;2023-09-19T09:17:37;5.60;;;1.38;;
22603;SDS011;11469;49.024;8.246;2023-09-19T09:20:02;6.68;;;1.50;;
22603;SDS011;11469;49.024;8.246;2023-09-19T09:22:30;4.47;;;1.60;;
22603;SDS011;11469;49.024;8.246;2023-09-19T09:24:57;5.80;;;1.35;;
22603;SDS011;11469;49.024;8.246;2023-09-19T09:27:30;5.43;;;1.70;;
22603;SDS011;11469;49.024;8.246;2023-09-19T09:29:57;4.93;;;1.30;;
22603;SDS011;11469;49.024;8.246;2023-09-19T09:32:29;12.73;;;1.67;;
22603;SDS011;11469;49.024;8.246;2023-09-19T09:34:59;8.40;;;1.38;;
22603;SDS011;11469;49.024;8.246;2023-09-19T09:37:26;8.57;;;1.60;;
22603;SDS011;11469;49.024;8.246;2023-09-19T09:40:00;5.18;;;1.40;;
22603;SDS011;11469;49.024;8.246;2023-09-19T09:42:42;7.80;;;1.52;;
22603;SDS011;11469;49.024;8.246;2023-09-19T09:45:18;5.53;;;1.25;;
22603;SDS011;11469;49.024;8.246;2023-09-19T09:48:02;6.55;;;1.30;;
22603;SDS011;11469;49.024;8.246;2023-09-19T09:55:58;6.63;;;1.30;;
22603;SDS011;11469;49.024;8.246;2023-09-19T09:58:32;7.65;;;1.30;;
22603;SDS011;11469;49.024;8.246;2023-09-19T10:01:00;3.80;;;1.05;;
22603;SDS011;11469;49.024;8.246;2023-09-19T10:03:37;5.68;;;1.48;;
22603;SDS011;11469;49.024;8.246;2023-09-19T10:06:12;4.97;;;0.98;;
22603;SDS011;11469;49.024;8.246;2023-09-19T10:09:06;6.45;;;1.40;;
22603;SDS011;11469;49.024;8.246;2023-09-19T10:11:48;4.28;;;1.30;;
22603;SDS011;11469;49.024;8.246;2023-09-19T10:14:25;9.70;;;1.42;;
22603;SDS011;11469;49.024;8.246;2023-09-19T10:16:56;9.73;;;1.45;;
22603;SDS011;11469;49.024;8.246;2023-09-19T10:19:30;5.20;;;1.33;;
22603;SDS011;11469;49.024;8.246;2023-09-19T10:22:09;3.95;;;1.25;;
22603;SDS011;11469;49.024;8.246;2023-09-19T10:24:37;5.05;;;1.35;;
22603;SDS011;11469;49.024;8.246;2023-09-19T10:27:04;4.15;;;1.15;;
22603;SDS011;11469;49.024;8.246;2023-09-19T10:29:34;3.83;;;1.08;;
22603;SDS011;11469;49.024;8.246;2023-09-19T10:32:01;5.60;;;1.50;;
22603;SDS011;11469;49.024;8.246;2023-09-19T10:34:31;8.70;;;1.60;;
22603;SDS011;11469;49.024;8.246;2023-09-19T10:37:00;9.68;;;3.58;;
22603;SDS011;11469;49.024;8.246;2023-09-19T10:39:30;5.28;;;1.40;;
22603;SDS011;11469;49.024;8.246;2023-09-19T10:41:57;7.30;;;1.38;;
22603;SDS011;11469;49.024;8.246;2023-09-19T10:44:31;5.63;;;1.73;;
22603;SDS011;11469;49.024;8.246;2023-09-19T10:46:57;5.32;;;1.15;;
22603;SDS011;11469;49.024;8.246;2023-09-19T10:49:24;6.15;;;1.15;;
22603;SDS011;11469;49.024;8.246;2023-09-19T10:51:54;6.43;;;1.48;;
22603;SDS011;11469;49.024;8.246;2023-09-19T10:54:26;5.60;;;1.50;;
22603;SDS011;11469;49.024;8.246;2023-09-19T10:56:57;6.00;;;1.25;;
22603;SDS011;11469;49.024;8.246;2023-09-19T10:59:24;4.45;;;1.40;;
22603;SDS011;11469;49.024;8.246;2023-09-19T11:01:55;6.65;;;1.38;;
22603;SDS011;11469;49.024;8.246;2023-09-19T11:15:01;7.40;;;1.38;;
22603;SDS011;11469;49.024;8.246;2023-09-19T11:17:31;5.32;;;1.30;;
22603;SDS011;11469;49.024;8.246;2023-09-19T11:30:45;2.85;;;1.13;;
22603;SDS011;11469;49.024;8.246;2023-09-19T11:33:17;7.60;;;1.48;;
22603;SDS011;11469;49.024;8.246;2023-09-19T11:36:06;8.10;;;1.52;;
22603;SDS011;11469;49.024;8.246;2023-09-19T11:43:54;7.55;;;1.60;;
22603;SDS011;11469;49.024;8.246;2023-09-19T11:49:28;5.63;;;1.50;;
22603;SDS011;11469;49.024;8.246;2023-09-19T11:51:57;4.75;;;1.20;;
22603;SDS011;11469;49.024;8.246;2023-09-19T11:54:30;4.65;;;1.52;;
22603;SDS011;11469;49.024;8.246;2023-09-19T11:56:57;3.38;;;1.30;;
22603;SDS011;11469;49.024;8.246;2023-09-19T11:59:24;5.30;;;1.17;;
22603;SDS011;11469;49.024;8.246;2023-09-19T12:01:55;4.30;;;1.27;;
22603;SDS011;11469;49.024;8.246;2023-09-19T12:07:03;6.80;;;1.30;;
22603;SDS011;11469;49.024;8.246;2023-09-19T12:09:31;4.65;;;1.38;;
22603;SDS011;11469;49.024;8.246;2023-09-19T12:11:56;3.67;;;1.20;;
22603;SDS011;11469;49.024;8.246;2023-09-19T12:14:25;4.40;;;1.10;;
22603;SDS011;11469;49.024;8.246;2023-09-19T12:16:57;3.60;;;1.33;;
22603;SDS011;11469;49.024;8.246;2023-09-19T12:19:23;4.85;;;1.17;;
22603;SDS011;11469;49.024;8.246;2023-09-19T12:22:02;8.55;;;1.25;;
22603;SDS011;11469;49.024;8.246;2023-09-19T12:24:32;5.25;;;1.20;;
22603;SDS011;11469;49.024;8.246;2023-09-19T12:27:01;3.38;;;1.25;;
22603;SDS011;11469;49.024;8.246;2023-09-19T12:29:31;2.55;;;1.23;;
22603;SDS011;11469;49.024;8.246;2023-09-19T12:32:06;3.72;;;1.25;;
22603;SDS011;11469;49.024;8.246;2023-09-19T12:34:32;3.58;;;1.20;;
22603;SDS011;11469;49.024;8.246;2023-09-19T12:39:48;8.70;;;1.50;;
22603;SDS011;11469;49.024;8.246;2023-09-19T12:42:20;2.65;;;1.15;;
22603;SDS011;11469;49.024;8.246;2023-09-19T12:44:52;6.13;;;1.45;;
22603;SDS011;11469;49.024;8.246;2023-09-19T12:47:21;2.85;;;1.13;;
22603;SDS011;11469;49.024;8.246;2023-09-19T12:52:56;3.33;;;1.40;;
22603;SDS011;11469;49.024;8.246;2023-09-19T12:55:25;5.20;;;1.30;;
22603;SDS011;11469;49.024;8.246;2023-09-19T13:00:30;3.20;;;1.25;;
22603;SDS011;11469;49.024;8.246;2023-09-19T13:06:01;3.20;;;1.08;;
22603;SDS011;11469;49.024;8.246;2023-09-19T13:11:03;2.70;;;1.37;;
22603;SDS011;11469;49.024;8.246;2023-09-19T13:16:52;4.78;;;1.10;;
22603;SDS011;11469;49.024;8.246;2023-09-19T13:19:50;3.05;;;1.20;;
22603;SDS011;11469;49.024;8.246;2023-09-19T13:25:23;4.78;;;1.25;;
22603;SDS011;11469;49.024;8.246;2023-09-19T13:27:55;4.78;;;1.27;;
22603;SDS011;11469;49.024;8.246;2023-09-19T13:30:24;4.43;;;1.23;;
22603;SDS011;11469;49.024;8.246;2023-09-19T13:32:51;3.67;;;1.33;;
22603;SDS011;11469;49.024;8.246;2023-09-19T13:35:18;3.75;;;1.23;;
22603;SDS011;11469;49.024;8.246;2023-09-19T13:37:45;4.95;;;1.25;;
22603;SDS011;11469;49.024;8.246;2023-09-19T13:40:14;4.07;;;1.20;;
22603;SDS011;11469;49.024;8.246;2023-09-19T13:42:40;3.65;;;1.20;;
22603;SDS011;11469;49.024;8.246;2023-09-19T13:45:07;4.18;;;1.20;;
22603;SDS011;11469;49.024;8.246;2023-09-19T13:47:36;4.70;;;1.50;;
22603;SDS011;11469;49.024;8.246;2023-09-19T13:50:03;5.50;;;1.10;;
22603;SDS011;11469;49.024;8.246;2023-09-19T13:52:30;6.40;;;1.35;;
22603;SDS011;11469;49.024;8.246;2023-09-19T13:54:56;3.03;;;1.20;;
22603;SDS011;11469;49.024;8.246;2023-09-19T13:57:23;5.63;;;1.13;;
22603;SDS011;11469;49.024;8.246;2023-09-19T13:59:49;5.10;;;1.30;;
22603;SDS011;11469;49.024;8.246;2023-09-19T14:02:14;6.20;;;1.10;;
22603;SDS011;11469;49.024;8.246;2023-09-19T14:04:40;3.63;;;1.10;;
22603;SDS011;11469;49.024;8.246;2023-09-19T14:07:06;1.98;;;0.88;;
22603;SDS011;11469;49.024;8.246;2023-09-19T14:09:32;3.63;;;1.23;;
22603;SDS011;11469;49.024;8.246;2023-09-19T14:11:58;2.78;;;0.70;;
22603;SDS011;11469;49.024;8.246;2023-09-19T14:14:24;3.08;;;1.10;;
22603;SDS011;11469;49.024;8.246;2023-09-19T14:16:50;2.65;;;1.00;;
22603;SDS011;11469;49.024;8.246;2023-09-19T14:19:17;3.13;;;1.27;;
22603;SDS011;11469;49.024;8.246;2023-09-19T14:21:43;4.95;;;1.25;;
22603;SDS011;11469;49.024;8.246;2023-09-19T14:24:08;2.58;;;0.80;;
22603;SDS011;11469;49.024;8.246;2023-09-19T14:26:37;4.80;;;1.15;;
22603;SDS011;11469;49.024;8.246;2023-09-19T14:29:03;1.98;;;1.02;;
22603;SDS011;11469;49.024;8.246;2023-09-19T14:31:28;2.85;;;0.90;;
22603;SDS011;11469;49.024;8.246;2023-09-19T14:33:54;4.30;;;1.30;;
22603;SDS011;11469;49.024;8.246;2023-09-19T14:36:24;2.00;;;0.90;;
22603;SDS011;11469;49.024;8.246;2023-09-19T14:38:52;5.50;;;1.00;;
22603;SDS011;11469;49.024;8.246;2023-09-19T14:41:22;6.95;;;1.00;;
22603;SDS011;11469;49.024;8.246;2023-09-19T14:43:48;3.92;;;1.08;;
22603;SDS011;11469;49.024;8.246;2023-09-19T14:46:14;3.00;;;0.80;;
22603;SDS011;11469;49.024;8.246;2023-09-19T14:48:39;5.35;;;0.82;;
22603;SDS011;11469;49.024;8.246;2023-09-19T14:51:08;2.78;;;1.05;;
22603;SDS011;11469;49.024;8.246;2023-09-19T14:53:34;2.08;;;1.00;;
22603;SDS011;11469;49.024;8.246;2023-09-19T14:56:02;6.10;;;1.25;;
22603;SDS011;11469;49.024;8.246;2023-09-19T14:58:29;2.47;;;0.77;;
22603;SDS011;11469;49.024;8.246;2023-09-19T15:01:07;2.67;;;1.10;;
22603;SDS011;11469;49.024;8.246;2023-09-19T15:03:35;2.83;;;1.00;;
22603;SDS011;11469;49.024;8.246;2023-09-19T15:06:02;6.13;;;1.45;;
22603;SDS011;11469;49.024;8.246;2023-09-19T15:08:29;2.13;;;0.88;;
22603;SDS011;11469;49.024;8.246;2023-09-19T15:10:55;2.53;;;0.90;;
22603;SDS011;11469;49.024;8.246;2023-09-19T15:13:20;3.15;;;0.90;;
22603;SDS011;11469;49.024;8.246;2023-09-19T15:15:46;4.72;;;0.80;;
22603;SDS011;11469;49.024;8.246;2023-09-19T15:18:13;4.22;;;1.17;;
22603;SDS011;11469;49.024;8.246;2023-09-19T15:20:43;2.35;;;1.00;;
22603;SDS011;11469;49.024;8.246;2023-09-19T15:23:09;7.85;;;1.10;;
22603;SDS011;11469;49.024;8.246;2023-09-19T15:25:35;3.20;;;1.02;;
22603;SDS011;11469;49.024;8.246;2023-09-19T15:28:00;4.85;;;1.30;;
22603;SDS011;11469;49.024;8.246;2023-09-19T15:30:36;3.45;;;0.93;;
22603;SDS011;11469;49.024;8.246;2023-09-19T15:33:02;3.72;;;1.10;;
22603;SDS011;11469;49.024;8.246;2023-09-19T15:35:28;3.58;;;1.27;;
22603;SDS011;11469;49.024;8.246;2023-09-19T15:37:53;4.75;;;0.98;;
22603;SDS011;11469;49.024;8.246;2023-09-19T15:40:21;4.13;;;1.20;;
22603;SDS011;11469;49.024;8.246;2023-09-19T15:42:48;2.33;;;1.05;;
22603;SDS011;11469;49.024;8.246;2023-09-19T15:45:14;4.35;;;1.38;;
22603;SDS011;11469;49.024;8.246;2023-09-19T15:47:41;4.50;;;0.90;;
22603;SDS011;11469;49.024;8.246;2023-09-19T15:50:07;4.22;;;0.80;;
22603;SDS011;11469;49.024;8.246;2023-09-19T15:52:40;4.22;;;0.98;;
22603;SDS011;11469;49.024;8.246;2023-09-19T15:55:06;7.32;;;1.23;;
22603;SDS011;11469;49.024;8.246;2023-09-19T15:57:32;3.88;;;1.10;;
22603;SDS011;11469;49.024;8.246;2023-09-19T15:59:59;2.65;;;0.80;;
22603;SDS011;11469;49.024;8.246;2023-09-19T16:02:25;7.45;;;0.98;;
22603;SDS011;11469;49.024;8.246;2023-09-19T16:04:51;1.45;;;0.90;;
22603;SDS011;11469;49.024;8.246;2023-09-19T16:07:19;3.97;;;0.93;;